sensor_id;sensor_type;location;lat;lon;timestamp;P1;durP1;ratioP1;P2;durP2;ratioP2
9665;SDS011;4871;52.004;5.924;2023-05-16T00:00:00;7.20;;;3.90;;
9665;SDS011;4871;52.004;5.924;2023-05-16T00:01:01;7.20;;;3.90;;
9665;SDS011;4871;52.004;5.924;2023-05-16T00:02:02;7.20;;;3.90;;
9665;SDS011;4871;52.004;5.924;2023-05-16T00:03:01;7.20;;;3.90;;
9665;SDS011;4871;52.004;5.924;2023-05-16T00:04:02;7.20;;;3.90;;
9665;SDS011;4871;52.004;5.924;2023-05-16T00:05:00;7.20;;;3.90;;
9665;SDS011;4871;52.004;5.924;2023-05-16T00:06:01;7.20;;;3.90;;
9665;SDS011;4871;52.004;5.924;2023-05-16T00:07:00;7.20;;;3.90;;
9665;SDS011;4871;52.004;5.924;2023-05-16T00:08:00;7.20;;;3.90;;
9665;SDS011;4871;52.004;5.924;2023-05-16T00:09:00;7.20;;;3.90;;
9665;SDS011;4871;52.004;5.924;2023-05-16T00:10:00;9.20;;;3.90;;
9665;SDS011;4871;52.004;5.924;2023-05-16T00:11:00;9.20;;;3.90;;
9665;SDS011;4871;52.004;5.924;2023-05-16T00:12:00;9.20;;;3.90;;
9665;SDS011;4871;52.004;5.924;2023-05-16T00:13:00;9.20;;;3.90;;
9665;SDS011;4871;52.004;5.924;2023-05-16T00:14:01;9.20;;;3.90;;
9665;SDS011;4871;52.004;5.924;2023-05-16T00:15:00;9.20;;;3.90;;
9665;SDS011;4871;52.004;5.924;2023-05-16T00:16:01;9.20;;;3.90;;
9665;SDS011;4871;52.004;5.924;2023-05-16T00:17:00;9.20;;;3.90;;
9665;SDS011;4871;52.004;5.924;2023-05-16T00:18:00;9.20;;;3.90;;
9665;SDS011;4871;52.004;5.924;2023-05-16T00:19:01;9.20;;;3.90;;
9665;SDS011;4871;52.004;5.924;2023-05-16T00:20:01;9.20;;;3.90;;
9665;SDS011;4871;52.004;5.924;2023-05-16T00:21:00;9.20;;;3.90;;
9665;SDS011;4871;52.004;5.924;2023-05-16T00:22:00;9.20;;;3.90;;
9665;SDS011;4871;52.004;5.924;2023-05-16T00:23:00;9.20;;;3.90;;
9665;SDS011;4871;52.004;5.924;2023-05-16T00:24:00;9.20;;;3.90;;
9665;SDS011;4871;52.004;5.924;2023-05-16T00:25:00;9.20;;;3.90;;
9665;SDS011;4871;52.004;5.924;2023-05-16T00:26:00;9.20;;;3.90;;
9665;SDS011;4871;52.004;5.924;2023-05-16T00:27:00;9.20;;;3.90;;
9665;SDS011;4871;52.004;5.924;2023-05-16T00:28:00;9.20;;;3.90;;
9665;SDS011;4871;52.004;5.924;2023-05-16T00:29:01;9.20;;;3.90;;
9665;SDS011;4871;52.004;5.924;2023-05-16T00:30:00;9.20;;;3.90;;
9665;SDS011;4871;52.004;5.924;2023-05-16T00:31:00;9.20;;;3.90;;
9665;SDS011;4871;52.004;5.924;2023-05-16T00:32:00;9.20;;;3.90;;
9665;SDS011;4871;52.004;5.924;2023-05-16T00:33:01;9.20;;;3.90;;
9665;SDS011;4871;52.004;5.924;2023-05-16T00:34:00;9.20;;;3.90;;
9665;SDS011;4871;52.004;5.924;2023-05-16T00:35:00;9.20;;;3.90;;
9665;SDS011;4871;52.004;5.924;2023-05-16T00:36:00;9.20;;;3.90;;
9665;SDS011;4871;52.004;5.924;2023-05-16T00:37:00;9.20;;;3.90;;
9665;SDS011;4871;52.004;5.924;2023-05-16T00:38:00;9.20;;;3.90;;
9665;SDS011;4871;52.004;5.924;2023-05-16T00:39:00;9.20;;;3.90;;
9665;SDS011;4871;52.004;5.924;2023-05-16T00:40:00;6.50;;;3.60;;
9665;SDS011;4871;52.004;5.924;2023-05-16T00:41:00;6.50;;;3.60;;
9665;SDS011;4871;52.004;5.924;2023-05-16T00:42:00;6.50;;;3.60;;
9665;SDS011;4871;52.004;5.924;2023-05-16T00:43:00;6.50;;;3.60;;
9665;SDS011;4871;52.004;5.924;2023-05-16T00:44:00;6.50;;;3.60;;
9665;SDS011;4871;52.004;5.924;2023-05-16T00:45:00;6.50;;;3.60;;
9665;SDS011;4871;52.004;5.924;2023-05-16T00:46:00;6.50;;;3.60;;
9665;SDS011;4871;52.004;5.924;2023-05-16T00:47:01;6.50;;;3.60;;
9665;SDS011;4871;52.004;5.924;2023-05-16T00:48:00;6.50;;;3.60;;
9665;SDS011;4871;52.004;5.924;2023-05-16T00:49:00;6.50;;;3.60;;
9665;SDS011;4871;52.004;5.924;2023-05-16T00:50:00;6.50;;;3.60;;
9665;SDS011;4871;52.004;5.924;2023-05-16T00:51:00;6.50;;;3.60;;
9665;SDS011;4871;52.004;5.924;2023-05-16T00:52:00;6.50;;;3.60;;
9665;SDS011;4871;52.004;5.924;2023-05-16T00:53:00;6.50;;;3.60;;
9665;SDS011;4871;52.004;5.924;2023-05-16T00:54:00;6.50;;;3.60;;
9665;SDS011;4871;52.004;5.924;2023-05-16T00:55:00;6.50;;;3.60;;
9665;SDS011;4871;52.004;5.924;2023-05-16T00:56:00;6.50;;;3.60;;
9665;SDS011;4871;52.004;5.924;2023-05-16T00:57:00;6.50;;;3.60;;
9665;SDS011;4871;52.004;5.924;2023-05-16T00:58:00;6.50;;;3.60;;
9665;SDS011;4871;52.004;5.924;2023-05-16T00:59:00;6.50;;;3.60;;
9665;SDS011;4871;52.004;5.924;2023-05-16T01:00:00;6.50;;;3.60;;
9665;SDS011;4871;52.004;5.924;2023-05-16T01:01:02;6.50;;;3.60;;
9665;SDS011;4871;52.004;5.924;2023-05-16T01:02:00;6.50;;;3.60;;
9665;SDS011;4871;52.004;5.924;2023-05-16T01:03:00;6.50;;;3.60;;
9665;SDS011;4871;52.004;5.924;2023-05-16T01:04:00;6.50;;;3.60;;
9665;SDS011;4871;52.004;5.924;2023-05-16T01:05:00;6.50;;;3.60;;
9665;SDS011;4871;52.004;5.924;2023-05-16T01:06:00;6.50;;;3.60;;
9665;SDS011;4871;52.004;5.924;2023-05-16T01:07:00;6.50;;;3.60;;
9665;SDS011;4871;52.004;5.924;2023-05-16T01:08:00;6.50;;;3.60;;
9665;SDS011;4871;52.004;5.924;2023-05-16T01:09:00;6.50;;;3.60;;
9665;SDS011;4871;52.004;5.924;2023-05-16T01:10:00;6.00;;;3.30;;
9665;SDS011;4871;52.004;5.924;2023-05-16T01:11:01;6.00;;;3.30;;
9665;SDS011;4871;52.004;5.924;2023-05-16T01:12:01;6.00;;;3.30;;
9665;SDS011;4871;52.004;5.924;2023-05-16T01:13:04;6.00;;;3.30;;
9665;SDS011;4871;52.004;5.924;2023-05-16T01:14:03;6.00;;;3.30;;
9665;SDS011;4871;52.004;5.924;2023-05-16T01:15:02;6.00;;;3.30;;
9665;SDS011;4871;52.004;5.924;2023-05-16T01:16:04;6.00;;;3.30;;
9665;SDS011;4871;52.004;5.924;2023-05-16T01:17:03;6.00;;;3.30;;
9665;SDS011;4871;52.004;5.924;2023-05-16T01:18:02;6.00;;;3.30;;
9665;SDS011;4871;52.004;5.924;2023-05-16T01:19:02;6.00;;;3.30;;
9665;SDS011;4871;52.004;5.924;2023-05-16T01:20:03;6.00;;;3.30;;
9665;SDS011;4871;52.004;5.924;2023-05-16T01:21:03;6.00;;;3.30;;
9665;SDS011;4871;52.004;5.924;2023-05-16T01:22:02;6.00;;;3.30;;
9665;SDS011;4871;52.004;5.924;2023-05-16T01:23:03;6.00;;;3.30;;
9665;SDS011;4871;52.004;5.924;2023-05-16T01:24:02;6.00;;;3.30;;
9665;SDS011;4871;52.004;5.924;2023-05-16T01:25:04;6.00;;;3.30;;
9665;SDS011;4871;52.004;5.924;2023-05-16T01:26:10;6.00;;;3.30;;
9665;SDS011;4871;52.004;5.924;2023-05-16T01:27:00;6.00;;;3.30;;
9665;SDS011;4871;52.004;5.924;2023-05-16T01:28:01;6.00;;;3.30;;
9665;SDS011;4871;52.004;5.924;2023-05-16T01:29:00;6.00;;;3.30;;
9665;SDS011;4871;52.004;5.924;2023-05-16T01:30:08;6.00;;;3.30;;
9665;SDS011;4871;52.004;5.924;2023-05-16T01:31:00;6.00;;;3.30;;
9665;SDS011;4871;52.004;5.924;2023-05-16T01:32:00;6.00;;;3.30;;
9665;SDS011;4871;52.004;5.924;2023-05-16T01:33:00;6.00;;;3.30;;
9665;SDS011;4871;52.004;5.924;2023-05-16T01:34:00;6.00;;;3.30;;
9665;SDS011;4871;52.004;5.924;2023-05-16T01:35:00;6.00;;;3.30;;
9665;SDS011;4871;52.004;5.924;2023-05-16T01:36:02;6.00;;;3.30;;
9665;SDS011;4871;52.004;5.924;2023-05-16T01:37:02;6.00;;;3.30;;
9665;SDS011;4871;52.004;5.924;2023-05-16T01:38:03;6.00;;;3.30;;
9665;SDS011;4871;52.004;5.924;2023-05-16T01:39:01;6.00;;;3.30;;
9665;SDS011;4871;52.004;5.924;2023-05-16T01:40:02;6.60;;;3.50;;
9665;SDS011;4871;52.004;5.924;2023-05-16T01:41:01;6.60;;;3.50;;
9665;SDS011;4871;52.004;5.924;2023-05-16T01:42:02;6.60;;;3.50;;
9665;SDS011;4871;52.004;5.924;2023-05-16T01:43:00;6.60;;;3.50;;
9665;SDS011;4871;52.004;5.924;2023-05-16T01:44:01;6.60;;;3.50;;
9665;SDS011;4871;52.004;5.924;2023-05-16T01:45:03;6.60;;;3.50;;
9665;SDS011;4871;52.004;5.924;2023-05-16T01:46:02;6.60;;;3.50;;
9665;SDS011;4871;52.004;5.924;2023-05-16T01:47:01;6.60;;;3.50;;
9665;SDS011;4871;52.004;5.924;2023-05-16T01:48:03;6.60;;;3.50;;
9665;SDS011;4871;52.004;5.924;2023-05-16T01:49:02;6.60;;;3.50;;
9665;SDS011;4871;52.004;5.924;2023-05-16T01:50:02;6.60;;;3.50;;
9665;SDS011;4871;52.004;5.924;2023-05-16T01:51:00;6.60;;;3.50;;
9665;SDS011;4871;52.004;5.924;2023-05-16T01:52:02;6.60;;;3.50;;
9665;SDS011;4871;52.004;5.924;2023-05-16T01:53:02;6.60;;;3.50;;
9665;SDS011;4871;52.004;5.924;2023-05-16T01:54:03;6.60;;;3.50;;
9665;SDS011;4871;52.004;5.924;2023-05-16T01:55:00;6.60;;;3.50;;
9665;SDS011;4871;52.004;5.924;2023-05-16T01:56:00;6.60;;;3.50;;
9665;SDS011;4871;52.004;5.924;2023-05-16T01:57:01;6.60;;;3.50;;
9665;SDS011;4871;52.004;5.924;2023-05-16T01:58:01;6.60;;;3.50;;
9665;SDS011;4871;52.004;5.924;2023-05-16T01:59:00;6.60;;;3.50;;
9665;SDS011;4871;52.004;5.924;2023-05-16T02:00:00;6.60;;;3.50;;
9665;SDS011;4871;52.004;5.924;2023-05-16T02:01:00;6.60;;;3.50;;
9665;SDS011;4871;52.004;5.924;2023-05-16T02:02:01;6.60;;;3.50;;
9665;SDS011;4871;52.004;5.924;2023-05-16T02:03:00;6.60;;;3.50;;
9665;SDS011;4871;52.004;5.924;2023-05-16T02:04:00;6.60;;;3.50;;
9665;SDS011;4871;52.004;5.924;2023-05-16T02:05:00;6.60;;;3.50;;
9665;SDS011;4871;52.004;5.924;2023-05-16T02:06:00;6.60;;;3.50;;
9665;SDS011;4871;52.004;5.924;2023-05-16T02:07:00;6.60;;;3.50;;
9665;SDS011;4871;52.004;5.924;2023-05-16T02:08:00;6.60;;;3.50;;
9665;SDS011;4871;52.004;5.924;2023-05-16T02:09:00;6.60;;;3.50;;
9665;SDS011;4871;52.004;5.924;2023-05-16T02:10:00;9.00;;;3.80;;
9665;SDS011;4871;52.004;5.924;2023-05-16T02:11:00;9.00;;;3.80;;
9665;SDS011;4871;52.004;5.924;2023-05-16T02:12:01;9.00;;;3.80;;
9665;SDS011;4871;52.004;5.924;2023-05-16T02:13:00;9.00;;;3.80;;
9665;SDS011;4871;52.004;5.924;2023-05-16T02:14:00;9.00;;;3.80;;
9665;SDS011;4871;52.004;5.924;2023-05-16T02:15:00;9.00;;;3.80;;
9665;SDS011;4871;52.004;5.924;2023-05-16T02:16:00;9.00;;;3.80;;
9665;SDS011;4871;52.004;5.924;2023-05-16T02:17:00;9.00;;;3.80;;
9665;SDS011;4871;52.004;5.924;2023-05-16T02:18:00;9.00;;;3.80;;
9665;SDS011;4871;52.004;5.924;2023-05-16T02:19:00;9.00;;;3.80;;
9665;SDS011;4871;52.004;5.924;2023-05-16T02:20:06;9.00;;;3.80;;
9665;SDS011;4871;52.004;5.924;2023-05-16T02:21:00;9.00;;;3.80;;
9665;SDS011;4871;52.004;5.924;2023-05-16T02:22:00;9.00;;;3.80;;
9665;SDS011;4871;52.004;5.924;2023-05-16T02:23:02;9.00;;;3.80;;
9665;SDS011;4871;52.004;5.924;2023-05-16T02:24:00;9.00;;;3.80;;
9665;SDS011;4871;52.004;5.924;2023-05-16T02:25:00;9.00;;;3.80;;
9665;SDS011;4871;52.004;5.924;2023-05-16T02:26:00;9.00;;;3.80;;
9665;SDS011;4871;52.004;5.924;2023-05-16T02:27:00;9.00;;;3.80;;
9665;SDS011;4871;52.004;5.924;2023-05-16T02:28:00;9.00;;;3.80;;
9665;SDS011;4871;52.004;5.924;2023-05-16T02:29:00;9.00;;;3.80;;
9665;SDS011;4871;52.004;5.924;2023-05-16T02:30:00;9.00;;;3.80;;
9665;SDS011;4871;52.004;5.924;2023-05-16T02:31:00;9.00;;;3.80;;
9665;SDS011;4871;52.004;5.924;2023-05-16T02:32:00;9.00;;;3.80;;
9665;SDS011;4871;52.004;5.924;2023-05-16T02:33:00;9.00;;;3.80;;
9665;SDS011;4871;52.004;5.924;2023-05-16T02:34:01;9.00;;;3.80;;
9665;SDS011;4871;52.004;5.924;2023-05-16T02:35:00;9.00;;;3.80;;
9665;SDS011;4871;52.004;5.924;2023-05-16T02:36:00;9.00;;;3.80;;
9665;SDS011;4871;52.004;5.924;2023-05-16T02:37:00;9.00;;;3.80;;
9665;SDS011;4871;52.004;5.924;2023-05-16T02:38:00;9.00;;;3.80;;
9665;SDS011;4871;52.004;5.924;2023-05-16T02:39:00;5.50;;;3.80;;
9665;SDS011;4871;52.004;5.924;2023-05-16T02:40:00;5.50;;;3.80;;
9665;SDS011;4871;52.004;5.924;2023-05-16T02:41:00;5.50;;;3.80;;
9665;SDS011;4871;52.004;5.924;2023-05-16T02:42:00;5.50;;;3.80;;
9665;SDS011;4871;52.004;5.924;2023-05-16T02:43:00;5.50;;;3.80;;
9665;SDS011;4871;52.004;5.924;2023-05-16T02:44:00;5.50;;;3.80;;
9665;SDS011;4871;52.004;5.924;2023-05-16T02:45:00;5.50;;;3.80;;
9665;SDS011;4871;52.004;5.924;2023-05-16T02:46:02;5.50;;;3.80;;
9665;SDS011;4871;52.004;5.924;2023-05-16T02:47:00;5.50;;;3.80;;
9665;SDS011;4871;52.004;5.924;2023-05-16T02:48:00;5.50;;;3.80;;
9665;SDS011;4871;52.004;5.924;2023-05-16T02:49:01;5.50;;;3.80;;
9665;SDS011;4871;52.004;5.924;2023-05-16T02:50:00;5.50;;;3.80;;
9665;SDS011;4871;52.004;5.924;2023-05-16T02:51:00;5.50;;;3.80;;
9665;SDS011;4871;52.004;5.924;2023-05-16T02:52:00;5.50;;;3.80;;
9665;SDS011;4871;52.004;5.924;2023-05-16T02:53:01;5.50;;;3.80;;
9665;SDS011;4871;52.004;5.924;2023-05-16T02:54:00;5.50;;;3.80;;
9665;SDS011;4871;52.004;5.924;2023-05-16T02:55:00;5.50;;;3.80;;
9665;SDS011;4871;52.004;5.924;2023-05-16T02:56:00;5.50;;;3.80;;
9665;SDS011;4871;52.004;5.924;2023-05-16T02:57:00;5.50;;;3.80;;
9665;SDS011;4871;52.004;5.924;2023-05-16T02:58:00;5.50;;;3.80;;
9665;SDS011;4871;52.004;5.924;2023-05-16T02:59:00;5.50;;;3.80;;
9665;SDS011;4871;52.004;5.924;2023-05-16T03:00:00;5.50;;;3.80;;
9665;SDS011;4871;52.004;5.924;2023-05-16T03:01:00;5.50;;;3.80;;
9665;SDS011;4871;52.004;5.924;2023-05-16T03:02:00;5.50;;;3.80;;
9665;SDS011;4871;52.004;5.924;2023-05-16T03:03:01;5.50;;;3.80;;
9665;SDS011;4871;52.004;5.924;2023-05-16T03:04:00;5.50;;;3.80;;
9665;SDS011;4871;52.004;5.924;2023-05-16T03:05:00;5.50;;;3.80;;
9665;SDS011;4871;52.004;5.924;2023-05-16T03:06:00;5.50;;;3.80;;
9665;SDS011;4871;52.004;5.924;2023-05-16T03:07:00;5.50;;;3.80;;
9665;SDS011;4871;52.004;5.924;2023-05-16T03:08:00;5.50;;;3.80;;
9665;SDS011;4871;52.004;5.924;2023-05-16T03:09:00;4.90;;;3.30;;
9665;SDS011;4871;52.004;5.924;2023-05-16T03:10:00;4.90;;;3.30;;
9665;SDS011;4871;52.004;5.924;2023-05-16T03:11:00;4.90;;;3.30;;
9665;SDS011;4871;52.004;5.924;2023-05-16T03:12:00;4.90;;;3.30;;
9665;SDS011;4871;52.004;5.924;2023-05-16T03:13:00;4.90;;;3.30;;
9665;SDS011;4871;52.004;5.924;2023-05-16T03:14:00;4.90;;;3.30;;
9665;SDS011;4871;52.004;5.924;2023-05-16T03:15:00;4.90;;;3.30;;
9665;SDS011;4871;52.004;5.924;2023-05-16T03:16:00;4.90;;;3.30;;
9665;SDS011;4871;52.004;5.924;2023-05-16T03:17:00;4.90;;;3.30;;
9665;SDS011;4871;52.004;5.924;2023-05-16T03:18:00;4.90;;;3.30;;
9665;SDS011;4871;52.004;5.924;2023-05-16T03:19:00;4.90;;;3.30;;
9665;SDS011;4871;52.004;5.924;2023-05-16T03:20:00;4.90;;;3.30;;
9665;SDS011;4871;52.004;5.924;2023-05-16T03:21:02;4.90;;;3.30;;
9665;SDS011;4871;52.004;5.924;2023-05-16T03:22:00;4.90;;;3.30;;
9665;SDS011;4871;52.004;5.924;2023-05-16T03:23:00;4.90;;;3.30;;
9665;SDS011;4871;52.004;5.924;2023-05-16T03:24:01;4.90;;;3.30;;
9665;SDS011;4871;52.004;5.924;2023-05-16T03:25:00;4.90;;;3.30;;
9665;SDS011;4871;52.004;5.924;2023-05-16T03:26:00;4.90;;;3.30;;
9665;SDS011;4871;52.004;5.924;2023-05-16T03:27:02;4.90;;;3.30;;
9665;SDS011;4871;52.004;5.924;2023-05-16T03:28:00;4.90;;;3.30;;
9665;SDS011;4871;52.004;5.924;2023-05-16T03:29:00;4.90;;;3.30;;
9665;SDS011;4871;52.004;5.924;2023-05-16T03:30:00;4.90;;;3.30;;
9665;SDS011;4871;52.004;5.924;2023-05-16T03:31:00;4.90;;;3.30;;
9665;SDS011;4871;52.004;5.924;2023-05-16T03:32:00;4.90;;;3.30;;
9665;SDS011;4871;52.004;5.924;2023-05-16T03:33:00;4.90;;;3.30;;
9665;SDS011;4871;52.004;5.924;2023-05-16T03:34:00;4.90;;;3.30;;
9665;SDS011;4871;52.004;5.924;2023-05-16T03:35:00;4.90;;;3.30;;
9665;SDS011;4871;52.004;5.924;2023-05-16T03:36:00;4.90;;;3.30;;
9665;SDS011;4871;52.004;5.924;2023-05-16T03:37:00;4.90;;;3.30;;
9665;SDS011;4871;52.004;5.924;2023-05-16T03:38:00;4.90;;;3.30;;
9665;SDS011;4871;52.004;5.924;2023-05-16T03:39:00;5.30;;;3.40;;
9665;SDS011;4871;52.004;5.924;2023-05-16T03:40:00;5.30;;;3.40;;
9665;SDS011;4871;52.004;5.924;2023-05-16T03:41:00;5.30;;;3.40;;
9665;SDS011;4871;52.004;5.924;2023-05-16T03:42:00;5.30;;;3.40;;
9665;SDS011;4871;52.004;5.924;2023-05-16T03:43:00;5.30;;;3.40;;
9665;SDS011;4871;52.004;5.924;2023-05-16T03:44:00;5.30;;;3.40;;
9665;SDS011;4871;52.004;5.924;2023-05-16T03:45:00;5.30;;;3.40;;
9665;SDS011;4871;52.004;5.924;2023-05-16T03:46:00;5.30;;;3.40;;
9665;SDS011;4871;52.004;5.924;2023-05-16T03:47:00;5.30;;;3.40;;
9665;SDS011;4871;52.004;5.924;2023-05-16T03:48:00;5.30;;;3.40;;
9665;SDS011;4871;52.004;5.924;2023-05-16T03:49:01;5.30;;;3.40;;
9665;SDS011;4871;52.004;5.924;2023-05-16T03:50:00;5.30;;;3.40;;
9665;SDS011;4871;52.004;5.924;2023-05-16T03:51:00;5.30;;;3.40;;
9665;SDS011;4871;52.004;5.924;2023-05-16T03:52:00;5.30;;;3.40;;
9665;SDS011;4871;52.004;5.924;2023-05-16T03:53:00;5.30;;;3.40;;
9665;SDS011;4871;52.004;5.924;2023-05-16T03:54:00;5.30;;;3.40;;
9665;SDS011;4871;52.004;5.924;2023-05-16T03:55:03;5.30;;;3.40;;
9665;SDS011;4871;52.004;5.924;2023-05-16T03:56:00;5.30;;;3.40;;
9665;SDS011;4871;52.004;5.924;2023-05-16T03:57:00;5.30;;;3.40;;
9665;SDS011;4871;52.004;5.924;2023-05-16T03:58:00;5.30;;;3.40;;
9665;SDS011;4871;52.004;5.924;2023-05-16T03:59:00;5.30;;;3.40;;
9665;SDS011;4871;52.004;5.924;2023-05-16T04:00:00;5.30;;;3.40;;
9665;SDS011;4871;52.004;5.924;2023-05-16T04:01:00;5.30;;;3.40;;
9665;SDS011;4871;52.004;5.924;2023-05-16T04:02:00;5.30;;;3.40;;
9665;SDS011;4871;52.004;5.924;2023-05-16T04:03:00;5.30;;;3.40;;
9665;SDS011;4871;52.004;5.924;2023-05-16T04:04:00;5.30;;;3.40;;
9665;SDS011;4871;52.004;5.924;2023-05-16T04:05:00;5.30;;;3.40;;
9665;SDS011;4871;52.004;5.924;2023-05-16T04:06:00;5.30;;;3.40;;
9665;SDS011;4871;52.004;5.924;2023-05-16T04:07:00;5.30;;;3.40;;
9665;SDS011;4871;52.004;5.924;2023-05-16T04:08:00;5.30;;;3.40;;
9665;SDS011;4871;52.004;5.924;2023-05-16T04:09:00;6.70;;;4.00;;
9665;SDS011;4871;52.004;5.924;2023-05-16T04:10:00;6.70;;;4.00;;
9665;SDS011;4871;52.004;5.924;2023-05-16T04:11:00;6.70;;;4.00;;
9665;SDS011;4871;52.004;5.924;2023-05-16T04:12:02;6.70;;;4.00;;
9665;SDS011;4871;52.004;5.924;2023-05-16T04:13:00;6.70;;;4.00;;
9665;SDS011;4871;52.004;5.924;2023-05-16T04:14:00;6.70;;;4.00;;
9665;SDS011;4871;52.004;5.924;2023-05-16T04:15:00;6.70;;;4.00;;
9665;SDS011;4871;52.004;5.924;2023-05-16T04:16:00;6.70;;;4.00;;
9665;SDS011;4871;52.004;5.924;2023-05-16T04:17:00;6.70;;;4.00;;
9665;SDS011;4871;52.004;5.924;2023-05-16T04:18:00;6.70;;;4.00;;
9665;SDS011;4871;52.004;5.924;2023-05-16T04:19:00;6.70;;;4.00;;
9665;SDS011;4871;52.004;5.924;2023-05-16T04:20:00;6.70;;;4.00;;
9665;SDS011;4871;52.004;5.924;2023-05-16T04:21:00;6.70;;;4.00;;
9665;SDS011;4871;52.004;5.924;2023-05-16T04:22:00;6.70;;;4.00;;
9665;SDS011;4871;52.004;5.924;2023-05-16T04:23:00;6.70;;;4.00;;
9665;SDS011;4871;52.004;5.924;2023-05-16T04:24:00;6.70;;;4.00;;
9665;SDS011;4871;52.004;5.924;2023-05-16T04:25:00;6.70;;;4.00;;
9665;SDS011;4871;52.004;5.924;2023-05-16T04:26:00;6.70;;;4.00;;
9665;SDS011;4871;52.004;5.924;2023-05-16T04:27:00;6.70;;;4.00;;
9665;SDS011;4871;52.004;5.924;2023-05-16T04:28:00;6.70;;;4.00;;
9665;SDS011;4871;52.004;5.924;2023-05-16T04:29:00;6.70;;;4.00;;
9665;SDS011;4871;52.004;5.924;2023-05-16T04:30:00;6.70;;;4.00;;
9665;SDS011;4871;52.004;5.924;2023-05-16T04:31:00;6.70;;;4.00;;
9665;SDS011;4871;52.004;5.924;2023-05-16T04:32:01;6.70;;;4.00;;
9665;SDS011;4871;52.004;5.924;2023-05-16T04:33:00;6.70;;;4.00;;
9665;SDS011;4871;52.004;5.924;2023-05-16T04:34:00;6.70;;;4.00;;
9665;SDS011;4871;52.004;5.924;2023-05-16T04:35:00;6.70;;;4.00;;
9665;SDS011;4871;52.004;5.924;2023-05-16T04:36:01;6.70;;;4.00;;
9665;SDS011;4871;52.004;5.924;2023-05-16T04:37:00;6.70;;;4.00;;
9665;SDS011;4871;52.004;5.924;2023-05-16T04:38:01;6.70;;;4.00;;
9665;SDS011;4871;52.004;5.924;2023-05-16T04:39:00;6.30;;;4.00;;
9665;SDS011;4871;52.004;5.924;2023-05-16T04:40:00;6.30;;;4.00;;
9665;SDS011;4871;52.004;5.924;2023-05-16T04:41:02;6.30;;;4.00;;
9665;SDS011;4871;52.004;5.924;2023-05-16T04:42:00;6.30;;;4.00;;
9665;SDS011;4871;52.004;5.924;2023-05-16T04:43:00;6.30;;;4.00;;
9665;SDS011;4871;52.004;5.924;2023-05-16T04:44:02;6.30;;;4.00;;
9665;SDS011;4871;52.004;5.924;2023-05-16T04:45:02;6.30;;;4.00;;
9665;SDS011;4871;52.004;5.924;2023-05-16T04:46:00;6.30;;;4.00;;
9665;SDS011;4871;52.004;5.924;2023-05-16T04:47:00;6.30;;;4.00;;
9665;SDS011;4871;52.004;5.924;2023-05-16T04:48:00;6.30;;;4.00;;
9665;SDS011;4871;52.004;5.924;2023-05-16T04:49:00;6.30;;;4.00;;
9665;SDS011;4871;52.004;5.924;2023-05-16T04:50:00;6.30;;;4.00;;
9665;SDS011;4871;52.004;5.924;2023-05-16T04:51:00;6.30;;;4.00;;
9665;SDS011;4871;52.004;5.924;2023-05-16T04:52:00;6.30;;;4.00;;
9665;SDS011;4871;52.004;5.924;2023-05-16T04:53:00;6.30;;;4.00;;
9665;SDS011;4871;52.004;5.924;2023-05-16T04:54:00;6.30;;;4.00;;
9665;SDS011;4871;52.004;5.924;2023-05-16T04:55:00;6.30;;;4.00;;
9665;SDS011;4871;52.004;5.924;2023-05-16T04:56:00;6.30;;;4.00;;
9665;SDS011;4871;52.004;5.924;2023-05-16T04:57:00;6.30;;;4.00;;
9665;SDS011;4871;52.004;5.924;2023-05-16T04:58:00;6.30;;;4.00;;
9665;SDS011;4871;52.004;5.924;2023-05-16T04:59:00;6.30;;;4.00;;
9665;SDS011;4871;52.004;5.924;2023-05-16T05:00:00;6.30;;;4.00;;
9665;SDS011;4871;52.004;5.924;2023-05-16T05:01:00;6.30;;;4.00;;
9665;SDS011;4871;52.004;5.924;2023-05-16T05:02:00;6.30;;;4.00;;
9665;SDS011;4871;52.004;5.924;2023-05-16T05:03:00;6.30;;;4.00;;
9665;SDS011;4871;52.004;5.924;2023-05-16T05:04:00;6.30;;;4.00;;
9665;SDS011;4871;52.004;5.924;2023-05-16T05:05:00;6.30;;;4.00;;
9665;SDS011;4871;52.004;5.924;2023-05-16T05:06:00;6.30;;;4.00;;
9665;SDS011;4871;52.004;5.924;2023-05-16T05:07:00;6.30;;;4.00;;
9665;SDS011;4871;52.004;5.924;2023-05-16T05:08:00;6.30;;;4.00;;
9665;SDS011;4871;52.004;5.924;2023-05-16T05:09:00;7.60;;;3.60;;
9665;SDS011;4871;52.004;5.924;2023-05-16T05:10:00;7.60;;;3.60;;
9665;SDS011;4871;52.004;5.924;2023-05-16T05:11:00;7.60;;;3.60;;
9665;SDS011;4871;52.004;5.924;2023-05-16T05:12:00;7.60;;;3.60;;
9665;SDS011;4871;52.004;5.924;2023-05-16T05:13:00;7.60;;;3.60;;
9665;SDS011;4871;52.004;5.924;2023-05-16T05:14:00;7.60;;;3.60;;
9665;SDS011;4871;52.004;5.924;2023-05-16T05:15:00;7.60;;;3.60;;
9665;SDS011;4871;52.004;5.924;2023-05-16T05:16:03;7.60;;;3.60;;
9665;SDS011;4871;52.004;5.924;2023-05-16T05:17:00;7.60;;;3.60;;
9665;SDS011;4871;52.004;5.924;2023-05-16T05:18:00;7.60;;;3.60;;
9665;SDS011;4871;52.004;5.924;2023-05-16T05:19:01;7.60;;;3.60;;
9665;SDS011;4871;52.004;5.924;2023-05-16T05:20:00;7.60;;;3.60;;
9665;SDS011;4871;52.004;5.924;2023-05-16T05:21:00;7.60;;;3.60;;
9665;SDS011;4871;52.004;5.924;2023-05-16T05:22:00;7.60;;;3.60;;
9665;SDS011;4871;52.004;5.924;2023-05-16T05:23:00;7.60;;;3.60;;
9665;SDS011;4871;52.004;5.924;2023-05-16T05:24:00;7.60;;;3.60;;
9665;SDS011;4871;52.004;5.924;2023-05-16T05:25:00;7.60;;;3.60;;
9665;SDS011;4871;52.004;5.924;2023-05-16T05:26:01;7.60;;;3.60;;
9665;SDS011;4871;52.004;5.924;2023-05-16T05:27:00;7.60;;;3.60;;
9665;SDS011;4871;52.004;5.924;2023-05-16T05:28:00;7.60;;;3.60;;
9665;SDS011;4871;52.004;5.924;2023-05-16T05:29:00;7.60;;;3.60;;
9665;SDS011;4871;52.004;5.924;2023-05-16T05:30:01;7.60;;;3.60;;
9665;SDS011;4871;52.004;5.924;2023-05-16T05:31:00;7.60;;;3.60;;
9665;SDS011;4871;52.004;5.924;2023-05-16T05:32:00;7.60;;;3.60;;
9665;SDS011;4871;52.004;5.924;2023-05-16T05:33:00;7.60;;;3.60;;
9665;SDS011;4871;52.004;5.924;2023-05-16T05:34:01;7.60;;;3.60;;
9665;SDS011;4871;52.004;5.924;2023-05-16T05:35:00;7.60;;;3.60;;
9665;SDS011;4871;52.004;5.924;2023-05-16T05:36:00;7.60;;;3.60;;
9665;SDS011;4871;52.004;5.924;2023-05-16T05:37:00;7.60;;;3.60;;
9665;SDS011;4871;52.004;5.924;2023-05-16T05:38:00;7.60;;;3.60;;
9665;SDS011;4871;52.004;5.924;2023-05-16T05:39:00;5.60;;;3.60;;
9665;SDS011;4871;52.004;5.924;2023-05-16T05:40:00;5.60;;;3.60;;
9665;SDS011;4871;52.004;5.924;2023-05-16T05:41:00;5.60;;;3.60;;
9665;SDS011;4871;52.004;5.924;2023-05-16T05:42:02;5.60;;;3.60;;
9665;SDS011;4871;52.004;5.924;2023-05-16T05:43:00;5.60;;;3.60;;
9665;SDS011;4871;52.004;5.924;2023-05-16T05:44:00;5.60;;;3.60;;
9665;SDS011;4871;52.004;5.924;2023-05-16T05:45:01;5.60;;;3.60;;
9665;SDS011;4871;52.004;5.924;2023-05-16T05:46:00;5.60;;;3.60;;
9665;SDS011;4871;52.004;5.924;2023-05-16T05:47:00;5.60;;;3.60;;
9665;SDS011;4871;52.004;5.924;2023-05-16T05:48:00;5.60;;;3.60;;
9665;SDS011;4871;52.004;5.924;2023-05-16T05:49:00;5.60;;;3.60;;
9665;SDS011;4871;52.004;5.924;2023-05-16T05:50:01;5.60;;;3.60;;
9665;SDS011;4871;52.004;5.924;2023-05-16T05:51:00;5.60;;;3.60;;
9665;SDS011;4871;52.004;5.924;2023-05-16T05:52:00;5.60;;;3.60;;
9665;SDS011;4871;52.004;5.924;2023-05-16T05:53:00;5.60;;;3.60;;
9665;SDS011;4871;52.004;5.924;2023-05-16T05:54:00;5.60;;;3.60;;
9665;SDS011;4871;52.004;5.924;2023-05-16T05:55:00;5.60;;;3.60;;
9665;SDS011;4871;52.004;5.924;2023-05-16T05:56:00;5.60;;;3.60;;
9665;SDS011;4871;52.004;5.924;2023-05-16T05:57:00;5.60;;;3.60;;
9665;SDS011;4871;52.004;5.924;2023-05-16T05:58:00;5.60;;;3.60;;
9665;SDS011;4871;52.004;5.924;2023-05-16T05:59:00;5.60;;;3.60;;
9665;SDS011;4871;52.004;5.924;2023-05-16T06:00:03;5.60;;;3.60;;
9665;SDS011;4871;52.004;5.924;2023-05-16T06:01:01;5.60;;;3.60;;
9665;SDS011;4871;52.004;5.924;2023-05-16T06:02:00;5.60;;;3.60;;
9665;SDS011;4871;52.004;5.924;2023-05-16T06:03:00;5.60;;;3.60;;
9665;SDS011;4871;52.004;5.924;2023-05-16T06:04:00;5.60;;;3.60;;
9665;SDS011;4871;52.004;5.924;2023-05-16T06:05:00;5.60;;;3.60;;
9665;SDS011;4871;52.004;5.924;2023-05-16T06:06:00;5.60;;;3.60;;
9665;SDS011;4871;52.004;5.924;2023-05-16T06:07:00;5.60;;;3.60;;
9665;SDS011;4871;52.004;5.924;2023-05-16T06:08:00;5.60;;;3.60;;
9665;SDS011;4871;52.004;5.924;2023-05-16T06:09:00;6.50;;;3.40;;
9665;SDS011;4871;52.004;5.924;2023-05-16T06:10:03;6.50;;;3.40;;
9665;SDS011;4871;52.004;5.924;2023-05-16T06:11:00;6.50;;;3.40;;
9665;SDS011;4871;52.004;5.924;2023-05-16T06:12:00;6.50;;;3.40;;